sensor_id;sensor_type;location;lat;lon;timestamp;pressure;altitude;pressure_sealevel;temperature;humidity
42859;BME280;28505;56.970;40.998;2023-02-26T00:00:12;98295.31;;;-0.17;100.00
42859;BME280;28505;56.970;40.998;2023-02-26T00:05:36;98270.97;;;-0.19;100.00
42859;BME280;28505;56.970;40.998;2023-02-26T00:10:59;98304.06;;;-0.06;100.00
42859;BME280;28505;56.970;40.998;2023-02-26T00:16:25;98325.78;;;0.06;100.00
42859;BME280;28505;56.970;40.998;2023-02-26T00:21:48;98275.47;;;-0.09;100.00
42859;BME280;28505;56.970;40.998;2023-02-26T00:27:11;98290.03;;;0.04;100.00
42859;BME280;28505;56.970;40.998;2023-02-26T00:32:34;98261.97;;;-0.13;100.00
42859;BME280;28505;56.970;40.998;2023-02-26T00:43:27;98301.69;;;0.08;100.00
42859;BME280;28505;56.970;40.998;2023-02-26T00:49:02;98289.22;;;0.08;100.00
42859;BME280;28505;56.970;40.998;2023-02-26T00:54:29;98274.91;;;0.09;100.00
42859;BME280;28505;56.970;40.998;2023-02-26T00:59:52;98230.16;;;-0.03;100.00
42859;BME280;28505;56.970;40.998;2023-02-26T01:05:17;98256.91;;;0.21;100.00
42859;BME280;28505;56.970;40.998;2023-02-26T01:10:40;98217.97;;;0.02;100.00
42859;BME280;28505;56.970;40.998;2023-02-26T01:16:08;98221.66;;;0.06;100.00
42859;BME280;28505;56.970;40.998;2023-02-26T01:21:40;98256.34;;;0.19;100.00
42859;BME280;28505;56.970;40.998;2023-02-26T01:27:05;98235.44;;;0.13;100.00
42859;BME280;28505;56.970;40.998;2023-02-26T01:49:30;98214.22;;;0.28;100.00
42859;BME280;28505;56.970;40.998;2023-02-26T01:54:52;98225.59;;;0.34;100.00
42859;BME280;28505;56.970;40.998;2023-02-26T02:00:15;98195.97;;;0.16;100.00
42859;BME280;28505;56.970;40.998;2023-02-26T02:05:51;98212.34;;;0.34;100.00
42859;BME280;28505;56.970;40.998;2023-02-26T02:11:15;98195.41;;;0.30;100.00
42859;BME280;28505;56.970;40.998;2023-02-26T02:28:22;98162.31;;;0.17;100.00
42859;BME280;28505;56.970;40.998;2023-02-26T02:34:02;98158.03;;;0.26;100.00
42859;BME280;28505;56.970;40.998;2023-02-26T02:39:32;98149.56;;;0.24;100.00
42859;BME280;28505;56.970;40.998;2023-02-26T02:45:04;98129.19;;;0.14;100.00
42859;BME280;28505;56.970;40.998;2023-02-26T02:50:38;98142.41;;;0.30;100.00
42859;BME280;28505;56.970;40.998;2023-02-26T02:56:14;98137.34;;;0.28;100.00
42859;BME280;28505;56.970;40.998;2023-02-26T03:01:38;98129.69;;;0.27;100.00
42859;BME280;28505;56.970;40.998;2023-02-26T03:07:03;98097.09;;;0.21;100.00
42859;BME280;28505;56.970;40.998;2023-02-26T03:12:29;98038.59;;;0.07;100.00
42859;BME280;28505;56.970;40.998;2023-02-26T03:18:05;98090.72;;;0.27;100.00
42859;BME280;28505;56.970;40.998;2023-02-26T03:23:38;98073.50;;;0.19;100.00
42859;BME280;28505;56.970;40.998;2023-02-26T03:29:23;98077.97;;;0.29;100.00
42859;BME280;28505;56.970;40.998;2023-02-26T03:34:54;98055.00;;;0.14;100.00
42859;BME280;28505;56.970;40.998;2023-02-26T03:40:41;98045.47;;;0.13;100.00
42859;BME280;28505;56.970;40.998;2023-02-26T03:46:17;98052.00;;;0.26;100.00
42859;BME280;28505;56.970;40.998;2023-02-26T03:51:46;98035.97;;;0.07;100.00
42859;BME280;28505;56.970;40.998;2023-02-26T03:57:29;98021.63;;;0.08;100.00
42859;BME280;28505;56.970;40.998;2023-02-26T04:03:33;98021.63;;;0.13;100.00
42859;BME280;28505;56.970;40.998;2023-02-26T04:08:59;97973.72;;;-0.01;100.00
42859;BME280;28505;56.970;40.998;2023-02-26T04:14:25;97980.59;;;0.06;100.00
42859;BME280;28505;56.970;40.998;2023-02-26T04:19:47;97958.59;;;0.05;100.00
42859;BME280;28505;56.970;40.998;2023-02-26T04:25:12;97981.09;;;0.08;100.00
42859;BME280;28505;56.970;40.998;2023-02-26T04:30:38;97951.72;;;0.04;100.00
42859;BME280;28505;56.970;40.998;2023-02-26T04:36:06;97968.63;;;0.13;100.00
42859;BME280;28505;56.970;40.998;2023-02-26T04:41:30;97966.97;;;0.22;100.00
42859;BME280;28505;56.970;40.998;2023-02-26T04:46:53;97948.72;;;0.21;100.00
42859;BME280;28505;56.970;40.998;2023-02-26T04:52:16;97955.13;;;0.10;100.00
42859;BME280;28505;56.970;40.998;2023-02-26T04:57:38;97962.03;;;0.06;100.00
42859;BME280;28505;56.970;40.998;2023-02-26T05:03:01;97985.06;;;0.10;100.00
42859;BME280;28505;56.970;40.998;2023-02-26T05:08:23;97965.72;;;0.10;100.00
42859;BME280;28505;56.970;40.998;2023-02-26T05:13:49;97936.69;;;-0.06;100.00
42859;BME280;28505;56.970;40.998;2023-02-26T05:19:12;97951.69;;;0.09;100.00
42859;BME280;28505;56.970;40.998;2023-02-26T05:24:39;97927.34;;;0.02;100.00
42859;BME280;28505;56.970;40.998;2023-02-26T05:30:03;97933.19;;;0.04;100.00
42859;BME280;28505;56.970;40.998;2023-02-26T05:35:27;97944.50;;;0.15;100.00
42859;BME280;28505;56.970;40.998;2023-02-26T05:40:49;97913.84;;;0.04;100.00
42859;BME280;28505;56.970;40.998;2023-02-26T05:46:12;97904.03;;;0.04;100.00
42859;BME280;28505;56.970;40.998;2023-02-26T05:51:35;97916.97;;;0.11;100.00
42859;BME280;28505;56.970;40.998;2023-02-26T05:56:59;97910.91;;;0.10;100.00
42859;BME280;28505;56.970;40.998;2023-02-26T06:02:22;97876.53;;;-0.05;100.00
42859;BME280;28505;56.970;40.998;2023-02-26T06:07:44;97891.81;;;0.08;100.00
42859;BME280;28505;56.970;40.998;2023-02-26T06:13:08;97889.72;;;0.05;100.00
42859;BME280;28505;56.970;40.998;2023-02-26T06:18:31;97891.03;;;0.08;100.00
42859;BME280;28505;56.970;40.998;2023-02-26T06:23:54;97894.22;;;0.05;100.00
42859;BME280;28505;56.970;40.998;2023-02-26T06:29:17;97871.47;;;0.04;100.00
42859;BME280;28505;56.970;40.998;2023-02-26T06:34:41;97880.75;;;0.01;100.00
42859;BME280;28505;56.970;40.998;2023-02-26T06:40:04;97875.69;;;0.05;100.00
42859;BME280;28505;56.970;40.998;2023-02-26T06:45:27;97861.44;;;-0.05;100.00
42859;BME280;28505;56.970;40.998;2023-02-26T06:50:49;97864.88;;;-0.04;100.00
42859;BME280;28505;56.970;40.998;2023-02-26T06:56:12;97865.63;;;0.02;100.00
42859;BME280;28505;56.970;40.998;2023-02-26T07:01:35;97840.81;;;-0.08;100.00
42859;BME280;28505;56.970;40.998;2023-02-26T07:06:58;97871.88;;;0.16;100.00
42859;BME280;28505;56.970;40.998;2023-02-26T07:12:21;97858.16;;;0.09;100.00
42859;BME280;28505;56.970;40.998;2023-02-26T07:17:43;97862.56;;;0.23;100.00
42859;BME280;28505;56.970;40.998;2023-02-26T07:23:06;97848.34;;;0.14;100.00
42859;BME280;28505;56.970;40.998;2023-02-26T07:28:28;97845.41;;;0.16;100.00
42859;BME280;28505;56.970;40.998;2023-02-26T07:33:51;97842.72;;;0.21;100.00
42859;BME280;28505;56.970;40.998;2023-02-26T07:39:15;97838.19;;;0.21;100.00
42859;BME280;28505;56.970;40.998;2023-02-26T07:44:37;97863.59;;;0.28;100.00
42859;BME280;28505;56.970;40.998;2023-02-26T07:50:00;97857.28;;;0.23;100.00
42859;BME280;28505;56.970;40.998;2023-02-26T07:55:23;97870.22;;;0.30;100.00
42859;BME280;28505;56.970;40.998;2023-02-26T08:00:45;97853.25;;;0.26;100.00
42859;BME280;28505;56.970;40.998;2023-02-26T08:06:07;97849.00;;;0.30;100.00
42859;BME280;28505;56.970;40.998;2023-02-26T08:11:31;97852.13;;;0.37;100.00
42859;BME280;28505;56.970;40.998;2023-02-26T08:17:00;97867.94;;;0.47;100.00
42859;BME280;28505;56.970;40.998;2023-02-26T08:22:22;97874.78;;;0.54;100.00
42859;BME280;28505;56.970;40.998;2023-02-26T08:27:44;97877.38;;;0.59;100.00
42859;BME280;28505;56.970;40.998;2023-02-26T08:33:06;97879.47;;;0.62;100.00
42859;BME280;28505;56.970;40.998;2023-02-26T08:38:29;97871.50;;;0.62;100.00
42859;BME280;28505;56.970;40.998;2023-02-26T08:43:52;97878.00;;;0.80;100.00
42859;BME280;28505;56.970;40.998;2023-02-26T08:49:15;97861.09;;;0.70;100.00
42859;BME280;28505;56.970;40.998;2023-02-26T08:54:40;97882.56;;;0.74;100.00
42859;BME280;28505;56.970;40.998;2023-02-26T09:00:07;97862.44;;;0.68;100.00
42859;BME280;28505;56.970;40.998;2023-02-26T09:05:34;97881.44;;;0.80;100.00
42859;BME280;28505;56.970;40.998;2023-02-26T09:11:03;97877.75;;;0.76;100.00
42859;BME280;28505;56.970;40.998;2023-02-26T09:16:27;97913.38;;;0.94;100.00
42859;BME280;28505;56.970;40.998;2023-02-26T09:21:55;97930.81;;;1.05;100.00
42859;BME280;28505;56.970;40.998;2023-02-26T09:27:18;97905.44;;;0.94;100.00
42859;BME280;28505;56.970;40.998;2023-02-26T09:32:40;97911.94;;;1.07;100.00
42859;BME280;28505;56.970;40.998;2023-02-26T09:38:03;97941.09;;;1.12;100.00
42859;BME280;28505;56.970;40.998;2023-02-26T09:55:08;97955.78;;;1.28;100.00
42859;BME280;28505;56.970;40.998;2023-02-26T10:06:25;97953.81;;;1.63;100.00
42859;BME280;28505;56.970;40.998;2023-02-26T10:17:34;97962.13;;;1.80;100.00
42859;BME280;28505;56.970;40.998;2023-02-26T10:28:40;97961.66;;;2.16;100.00
42859;BME280;28505;56.970;40.998;2023-02-26T10:34:37;97929.88;;;2.06;100.00
42859;BME280;28505;56.970;40.998;2023-02-26T10:40:41;97966.59;;;2.42;100.00
42859;BME280;28505;56.970;40.998;2023-02-26T10:46:17;97967.41;;;2.42;100.00
42859;BME280;28505;56.970;40.998;2023-02-26T10:51:44;97953.19;;;2.33;100.00
42859;BME280;28505;56.970;40.998;2023-02-26T10:57:23;97960.28;;;2.38;100.00
42859;BME280;28505;56.970;40.998;2023-02-26T11:02:49;97998.72;;;2.64;100.00
42859;BME280;28505;56.970;40.998;2023-02-26T11:08:19;98010.03;;;2.56;100.00
42859;BME280;28505;56.970;40.998;2023-02-26T11:13:46;97988.53;;;2.33;100.00
42859;BME280;28505;56.970;40.998;2023-02-26T11:19:13;97981.97;;;2.07;100.00
42859;BME280;28505;56.970;40.998;2023-02-26T11:24:39;98030.91;;;2.25;100.00
42859;BME280;28505;56.970;40.998;2023-02-26T11:30:14;97998.06;;;1.97;100.00
42859;BME280;28505;56.970;40.998;2023-02-26T11:35:39;98018.28;;;1.93;100.00
42859;BME280;28505;56.970;40.998;2023-02-26T11:41:04;98018.63;;;1.86;100.00
42859;BME280;28505;56.970;40.998;2023-02-26T11:46:27;98061.94;;;2.10;100.00
42859;BME280;28505;56.970;40.998;2023-02-26T11:52:05;98025.41;;;1.97;100.00
42859;BME280;28505;56.970;40.998;2023-02-26T11:57:41;98034.47;;;1.96;100.00
42859;BME280;28505;56.970;40.998;2023-02-26T12:03:07;98034.78;;;1.90;100.00
42859;BME280;28505;56.970;40.998;2023-02-26T12:08:37;98044.91;;;1.87;100.00
42859;BME280;28505;56.970;40.998;2023-02-26T12:31:09;98060.22;;;1.96;100.00
42859;BME280;28505;56.970;40.998;2023-02-26T12:56:03;98088.66;;;1.71;100.00
42859;BME280;28505;56.970;40.998;2023-02-26T13:01:50;98072.53;;;1.62;100.00
42859;BME280;28505;56.970;40.998;2023-02-26T13:07:54;98079.19;;;1.60;100.00
42859;BME280;28505;56.970;40.998;2023-02-26T13:35:52;98143.03;;;1.50;100.00
42859;BME280;28505;56.970;40.998;2023-02-26T13:52:30;98142.63;;;1.32;100.00
42859;BME280;28505;56.970;40.998;2023-02-26T13:57:53;98138.75;;;1.20;100.00
42859;BME280;28505;56.970;40.998;2023-02-26T14:08:43;98169.25;;;1.22;100.00
42859;BME280;28505;56.970;40.998;2023-02-26T14:14:17;98193.91;;;1.28;100.00
42859;BME280;28505;56.970;40.998;2023-02-26T14:20:08;98190.25;;;1.19;100.00
42859;BME280;28505;56.970;40.998;2023-02-26T14:25:36;98178.94;;;0.98;100.00
42859;BME280;28505;56.970;40.998;2023-02-26T14:31:08;98204.88;;;1.11;100.00
42859;BME280;28505;56.970;40.998;2023-02-26T14:36:50;98205.72;;;1.01;100.00
42859;BME280;28505;56.970;40.998;2023-02-26T14:42:18;98230.34;;;1.12;100.00
42859;BME280;28505;56.970;40.998;2023-02-26T14:47:44;98229.88;;;1.05;100.00
42859;BME280;28505;56.970;40.998;2023-02-26T14:53:20;98246.28;;;1.07;100.00
42859;BME280;28505;56.970;40.998;2023-02-26T14:58:49;98243.94;;;1.00;100.00
42859;BME280;28505;56.970;40.998;2023-02-26T15:04:30;98265.41;;;1.09;100.00
42859;BME280;28505;56.970;40.998;2023-02-26T15:10:23;98258.50;;;1.08;100.00
42859;BME280;28505;56.970;40.998;2023-02-26T15:15:58;98271.50;;;1.04;100.00
42859;BME280;28505;56.970;40.998;2023-02-26T15:27:12;98281.34;;;1.04;100.00
42859;BME280;28505;56.970;40.998;2023-02-26T15:32:37;98269.97;;;0.98;100.00
42859;BME280;28505;56.970;40.998;2023-02-26T15:38:02;98228.41;;;0.68;100.00
42859;BME280;28505;56.970;40.998;2023-02-26T15:43:31;98276.06;;;0.99;100.00
42859;BME280;28505;56.970;40.998;2023-02-26T15:49:04;98241.13;;;0.71;100.00
42859;BME280;28505;56.970;40.998;2023-02-26T15:54:55;98292.00;;;0.93;100.00
42859;BME280;28505;56.970;40.998;2023-02-26T16:00:21;98286.16;;;0.91;100.00
42859;BME280;28505;56.970;40.998;2023-02-26T16:05:47;98290.97;;;0.84;100.00
42859;BME280;28505;56.970;40.998;2023-02-26T16:11:12;98266.31;;;0.74;100.00
42859;BME280;28505;56.970;40.998;2023-02-26T16:16:41;98281.97;;;0.75;100.00
42859;BME280;28505;56.970;40.998;2023-02-26T16:22:11;98275.63;;;0.71;100.00
42859;BME280;28505;56.970;40.998;2023-02-26T16:27:38;98255.75;;;0.58;100.00
42859;BME280;28505;56.970;40.998;2023-02-26T16:33:04;98281.44;;;0.73;100.00
42859;BME280;28505;56.970;40.998;2023-02-26T16:38:41;98262.91;;;0.58;100.00
42859;BME280;28505;56.970;40.998;2023-02-26T16:44:38;98286.75;;;0.68;100.00
42859;BME280;28505;56.970;40.998;2023-02-26T16:50:16;98266.66;;;0.52;100.00
42859;BME280;28505;56.970;40.998;2023-02-26T16:55:41;98263.47;;;0.50;100.00
42859;BME280;28505;56.970;40.998;2023-02-26T17:01:13;98256.56;;;0.49;100.00
42859;BME280;28505;56.970;40.998;2023-02-26T17:06:39;98282.00;;;0.65;100.00
42859;BME280;28505;56.970;40.998;2023-02-26T17:17:33;98262.94;;;0.53;100.00
42859;BME280;28505;56.970;40.998;2023-02-26T17:23:05;98266.09;;;0.55;100.00
42859;BME280;28505;56.970;40.998;2023-02-26T17:28:34;98299.47;;;0.76;100.00
42859;BME280;28505;56.970;40.998;2023-02-26T17:34:09;98285.97;;;0.67;100.00
42859;BME280;28505;56.970;40.998;2023-02-26T17:39:33;98273.28;;;0.59;100.00
42859;BME280;28505;56.970;40.998;2023-02-26T17:44:55;98283.34;;;0.62;100.00
42859;BME280;28505;56.970;40.998;2023-02-26T17:50:40;98310.59;;;0.83;100.00
42859;BME280;28505;56.970;40.998;2023-02-26T17:56:04;98303.72;;;0.82;100.00
42859;BME280;28505;56.970;40.998;2023-02-26T18:01:27;98310.09;;;0.76;100.00
42859;BME280;28505;56.970;40.998;2023-02-26T18:06:53;98317.22;;;0.81;100.00
42859;BME280;28505;56.970;40.998;2023-02-26T18:12:20;98302.41;;;0.64;100.00
42859;BME280;28505;56.970;40.998;2023-02-26T18:17:49;98312.22;;;0.64;100.00
42859;BME280;28505;56.970;40.998;2023-02-26T18:23:12;98305.38;;;0.53;100.00
42859;BME280;28505;56.970;40.998;2023-02-26T18:28:35;98332.66;;;0.63;100.00
42859;BME280;28505;56.970;40.998;2023-02-26T18:33:58;98327.88;;;0.60;100.00
42859;BME280;28505;56.970;40.998;2023-02-26T18:39:24;98319.69;;;0.57;100.00
42859;BME280;28505;56.970;40.998;2023-02-26T18:44:58;98314.63;;;0.45;100.00
42859;BME280;28505;56.970;40.998;2023-02-26T18:50:21;98344.59;;;0.51;100.00
42859;BME280;28505;56.970;40.998;2023-02-26T18:55:44;98357.34;;;0.43;100.00
42859;BME280;28505;56.970;40.998;2023-02-26T19:01:06;98375.34;;;0.26;100.00
42859;BME280;28505;56.970;40.998;2023-02-26T19:06:28;98369.50;;;-0.02;100.00
42859;BME280;28505;56.970;40.998;2023-02-26T19:11:50;98372.66;;;-0.15;100.00
42859;BME280;28505;56.970;40.998;2023-02-26T19:17:13;98384.03;;;-0.25;100.00
42859;BME280;28505;56.970;40.998;2023-02-26T19:22:38;98391.97;;;-0.25;100.00
42859;BME280;28505;56.970;40.998;2023-02-26T19:28:01;98412.09;;;-0.24;100.00
42859;BME280;28505;56.970;40.998;2023-02-26T19:33:23;98437.25;;;-0.21;100.00
42859;BME280;28505;56.970;40.998;2023-02-26T19:38:46;98419.72;;;-0.42;100.00
42859;BME280;28505;56.970;40.998;2023-02-26T19:44:09;98428.69;;;-0.49;100.00
42859;BME280;28505;56.970;40.998;2023-02-26T19:49:32;98436.06;;;-0.56;100.00
42859;BME280;28505;56.970;40.998;2023-02-26T19:54:55;98447.69;;;-0.57;100.00
42859;BME280;28505;56.970;40.998;2023-02-26T20:00:17;98464.66;;;-0.53;100.00
42859;BME280;28505;56.970;40.998;2023-02-26T20:05:39;98468.59;;;-0.60;100.00
42859;BME280;28505;56.970;40.998;2023-02-26T20:11:02;98480.47;;;-0.63;100.00
42859;BME280;28505;56.970;40.998;2023-02-26T20:16:24;98455.44;;;-0.92;100.00
42859;BME280;28505;56.970;40.998;2023-02-26T20:21:47;98471.56;;;-0.94;100.00
42859;BME280;28505;56.970;40.998;2023-02-26T20:27:10;98445.16;;;-1.26;100.00
42859;BME280;28505;56.970;40.998;2023-02-26T20:32:33;98475.75;;;-1.35;100.00
42859;BME280;28505;56.970;40.998;2023-02-26T20:37:55;98502.81;;;-1.23;100.00
42859;BME280;28505;56.970;40.998;2023-02-26T20:43:17;98483.88;;;-1.42;100.00
42859;BME280;28505;56.970;40.998;2023-02-26T20:48:40;98465.03;;;-1.51;100.00
42859;BME280;28505;56.970;40.998;2023-02-26T20:54:09;98506.25;;;-1.23;100.00
42859;BME280;28505;56.970;40.998;2023-02-26T20:59:33;98518.41;;;-1.27;100.00
42859;BME280;28505;56.970;40.998;2023-02-26T21:04:58;98484.88;;;-1.48;100.00
42859;BME280;28505;56.970;40.998;2023-02-26T21:10:21;98493.38;;;-1.46;100.00
42859;BME280;28505;56.970;40.998;2023-02-26T21:15:43;98500.53;;;-1.42;100.00
42859;BME280;28505;56.970;40.998;2023-02-26T21:21:05;98499.44;;;-1.46;100.00
42859;BME280;28505;56.970;40.998;2023-02-26T21:26:28;98550.16;;;-1.22;100.00
42859;BME280;28505;56.970;40.998;2023-02-26T21:31:50;98529.38;;;-1.40;100.00
42859;BME280;28505;56.970;40.998;2023-02-26T21:37:14;98545.25;;;-1.40;100.00
42859;BME280;28505;56.970;40.998;2023-02-26T21:42:36;98561.41;;;-1.36;100.00
42859;BME280;28505;56.970;40.998;2023-02-26T21:47:59;98563.69;;;-1.45;100.00
42859;BME280;28505;56.970;40.998;2023-02-26T21:53:25;98588.91;;;-1.32;100.00
42859;BME280;28505;56.970;40.998;2023-02-26T21:58:47;98563.56;;;-1.55;100.00
42859;BME280;28505;56.970;40.998;2023-02-26T22:04:09;98610.88;;;-1.32;100.00
42859;BME280;28505;56.970;40.998;2023-02-26T22:09:32;98613.22;;;-1.35;100.00
42859;BME280;28505;56.970;40.998;2023-02-26T22:14:56;98612.91;;;-1.39;100.00
42859;BME280;28505;56.970;40.998;2023-02-26T22:20:19;98624.53;;;-1.40;100.00
42859;BME280;28505;56.970;40.998;2023-02-26T22:25:41;98625.13;;;-1.33;100.00
42859;BME280;28505;56.970;40.998;2023-02-26T22:31:04;98604.56;;;-1.53;100.00
42859;BME280;28505;56.970;40.998;2023-02-26T22:36:26;98629.06;;;-1.35;100.00
42859;BME280;28505;56.970;40.998;2023-02-26T22:41:50;98638.28;;;-1.38;100.00
42859;BME280;28505;56.970;40.998;2023-02-26T22:47:13;98630.03;;;-1.47;100.00
42859;BME280;28505;56.970;40.998;2023-02-26T22:52:35;98660.31;;;-1.32;100.00
42859;BME280;28505;56.970;40.998;2023-02-26T22:58:00;98641.50;;;-1.58;100.00
42859;BME280;28505;56.970;40.998;2023-02-26T23:03:23;98641.00;;;-1.55;100.00
42859;BME280;28505;56.970;40.998;2023-02-26T23:08:45;98680.34;;;-1.36;100.00
42859;BME280;28505;56.970;40.998;2023-02-26T23:14:07;98651.47;;;-1.65;100.00
42859;BME280;28505;56.970;40.998;2023-02-26T23:19:30;98679.09;;;-1.51;100.00
42859;BME280;28505;56.970;40.998;2023-02-26T23:24:52;98688.34;;;-1.53;100.00
42859;BME280;28505;56.970;40.998;2023-02-26T23:30:15;98680.03;;;-1.62;100.00
42859;BME280;28505;56.970;40.998;2023-02-26T23:35:39;98667.75;;;-1.73;100.00
42859;BME280;28505;56.970;40.998;2023-02-26T23:41:01;98693.16;;;-1.67;100.00
42859;BME280;28505;56.970;40.998;2023-02-26T23:46:23;98696.88;;;-1.68;100.00
42859;BME280;28505;56.970;40.998;2023-02-26T23:51:45;98702.63;;;-1.71;100.00
42859;BME280;28505;56.970;40.998;2023-02-26T23:57:08;98698.94;;;-1.70;100.00
